Terminal Aerodrome Forecast
Issued by NWS Wilmington, OH

Current Version | Previous Version | Graphics & Text | Print | Product List | Glossary On
Versions: 1 2 3 4 5 6 7 8 9 10 11 12 13 14 15 16 17 18
000
FTUS41 KILN 250300 AAC
TAFILN
TAF AMD
KILN 250304Z 2503/2524 25020G29KT P6SM VCSH BKN019 OVC035
      TEMPO 2503/2507 -SHRA SCT019 OVC035
     FM250800 25016G28KT P6SM VCSH OVC022
     FM251200 24012G21KT P6SM BKN020=

USA.gov is the U.S. government's official web portal to all federal, state and local government web resources and services.